METAR Data
IDs: Format: Raw Decoded Include TAF

Data at: 0115 UTC 06 Dec 2019

KOMN 052350Z 00000KT 10SM CLR 11/08 A3016 RMK LAST

KDAB 060053Z 00000KT 10SM BKN200 11/08 A3018 RMK AO2 SLP218 T01060083